createdAt,value
2019-02-24T05:03:42.487Z,1.411133
2019-02-24T05:07:10.524Z,1.340637
2019-02-24T05:10:38.393Z,1.300354
2019-02-24T05:14:06.547Z,1.239929
2019-02-24T05:17:34.676Z,1.239929
2019-02-24T05:21:03.618Z,1.199646
2019-02-24T05:24:31.553Z,1.11908
2019-02-24T05:27:59.633Z,1.098938
2019-02-24T05:31:27.692Z,1.088867
2019-02-24T05:34:55.760Z,1.098938
2019-02-24T05:38:24.669Z,1.048584
2019-02-24T05:41:52.711Z,1.018372
2019-02-24T05:45:20.701Z,1.058655
2019-02-24T05:48:48.631Z,1.048584
2019-02-24T05:52:17.531Z,1.018372
2019-02-24T05:55:45.585Z,0.907593
2019-02-24T05:59:13.516Z,0.796814
2019-02-24T06:02:41.418Z,0.726318
2019-02-24T06:06:09.494Z,0.696106
2019-02-24T06:09:37.510Z,0.665894
2019-02-24T06:13:06.560Z,0.62561
2019-02-24T06:16:34.591Z,0.61554
2019-02-24T06:20:03.574Z,0.585327
2019-02-24T06:23:31.619Z,0.585327
2019-02-24T06:27:00.518Z,0.61554
2019-02-24T06:30:28.522Z,0.585327
2019-02-24T06:33:56.518Z,0.555115
2019-02-24T06:37:24.546Z,0.585327
2019-02-24T06:40:52.747Z,0.61554
2019-02-24T06:44:21.633Z,0.635681
2019-02-24T06:47:50.697Z,0.635681
2019-02-24T06:51:18.852Z,0.696106
2019-02-24T06:54:46.900Z,0.796814
2019-02-24T06:58:14.780Z,0.86731
2019-02-24T07:01:43.759Z,1.018372
2019-02-24T07:05:11.777Z,1.179504
2019-02-24T07:08:39.791Z,1.350708
2019-02-24T07:12:07.843Z,1.552124
2019-02-24T07:15:35.719Z,1.713257
2019-02-24T07:19:03.664Z,1.844177
2019-02-24T07:22:31.620Z,1.914673
2019-02-24T07:25:59.688Z,1.934814
2019-02-24T07:29:27.610Z,2.00531
2019-02-24T07:32:55.591Z,2.176514
2019-02-24T07:36:23.707Z,2.317505
2019-02-24T07:39:52.721Z,2.418213
2019-02-24T07:43:20.731Z,2.528992
2019-02-24T07:46:48.648Z,2.680054
2019-02-24T07:50:16.677Z,2.790833
2019-02-24T07:53:44.767Z,2.911682
2019-02-24T07:57:12.758Z,3.123169
2019-02-24T08:00:40.874Z,3.26416
2019-02-24T08:04:09.077Z,3.455505
2019-02-24T08:07:37.133Z,3.63678
2019-02-24T08:11:05.230Z,3.848267
2019-02-24T08:14:33.320Z,4.100037
2019-02-24T08:18:01.511Z,4.301453
2019-02-24T08:21:29.532Z,4.361877
2019-02-24T08:24:57.638Z,4.462585
2019-02-24T08:28:25.590Z,4.603577
2019-02-24T08:31:53.633Z,4.674072
2019-02-24T08:35:23.741Z,4.825134
2019-02-24T08:38:51.734Z,4.966125
2019-02-24T08:42:19.889Z,5.066833
2019-02-24T08:45:48.855Z,4.996338
2019-02-24T08:49:16.827Z,5.02655
2019-02-24T08:52:45.852Z,5.086975
2019-02-24T08:56:13.871Z,5.177612
2019-02-24T08:59:41.957Z,5.177612
2019-02-24T09:03:10.006Z,5.187683
2019-02-24T09:06:38.100Z,5.157471
2019-02-24T09:10:06.131Z,5.207825
2019-02-24T09:13:34.091Z,5.358887
2019-02-24T09:17:03.041Z,5.52002
2019-02-24T09:20:31.181Z,5.701294
2019-02-24T09:23:59.124Z,5.872498
2019-02-24T09:27:27.180Z,5.852356
2019-02-24T09:31:00.651Z,5.953064
2019-02-24T09:34:26.192Z,6.134338
2019-02-24T09:37:54.089Z,6.124268
2019-02-24T09:41:22.130Z,6.214905
2019-02-24T09:44:50.081Z,6.496887
2019-02-24T09:48:18.104Z,6.597595
2019-02-24T09:51:46.082Z,6.607666
2019-02-24T09:55:15.173Z,6.738586
2019-02-24T09:58:43.153Z,6.859436
2019-02-24T10:02:11.139Z,6.90979
2019-02-24T10:05:39.279Z,7.151489
2019-02-24T10:09:08.301Z,7.433472
2019-02-24T10:12:38.355Z,7.866516
2019-02-24T10:16:06.721Z,8.682251
2019-02-24T10:19:34.663Z,9.17572
2019-02-24T10:23:02.585Z,9.467773
2019-02-24T10:26:30.678Z,9.769897
2019-02-24T10:29:58.561Z,9.598694
2019-02-24T10:33:26.538Z,9.17572
2019-02-24T10:36:54.471Z,8.954163
2019-02-24T10:40:22.391Z,9.135437
2019-02-24T10:43:50.341Z,9.981384
2019-02-24T10:47:18.487Z,12.650146
2019-02-24T10:50:46.538Z,14.261475
2019-02-24T10:54:14.605Z,15.328979
2019-02-24T10:57:42.581Z,17.020874
2019-02-24T11:01:10.577Z,16.426697
2019-02-24T11:04:38.647Z,16.315918
2019-02-24T11:08:06.675Z,15.268555
2019-02-24T11:11:35.677Z,14.775085
2019-02-24T11:15:03.719Z,14.281616
2019-02-24T11:18:31.888Z,14.926147
2019-02-24T11:21:59.777Z,14.815369
2019-02-24T11:25:27.951Z,15.097351
2019-02-24T11:28:57.010Z,15.59082
2019-02-24T11:32:25.054Z,15.631104
2019-02-24T11:35:53.157Z,15.651245
2019-02-24T11:39:21.309Z,16.245422
2019-02-24T11:42:50.351Z,15.802307
2019-02-24T11:46:19.558Z,15.540466
2019-02-24T11:49:47.744Z,15.187988
2019-02-24T11:53:16.043Z,15.036926
2019-02-24T11:56:44.217Z,14.815369
2019-02-24T12:00:13.439Z,15.046997
2019-02-24T12:03:41.667Z,15.107422
2019-02-24T12:07:09.617Z,14.714661
2019-02-24T12:10:37.726Z,14.211121
2019-02-24T12:14:05.730Z,14.644165
2019-02-24T12:17:34.773Z,14.775085
2019-02-24T12:21:02.886Z,14.714661
2019-02-24T12:24:31.871Z,14.744873
2019-02-24T12:28:00.004Z,14.644165
2019-02-24T12:31:27.955Z,14.845581
2019-02-24T12:34:55.914Z,14.523315
2019-02-24T12:38:24.912Z,14.462891
2019-02-24T12:41:52.929Z,14.271545
2019-02-24T12:45:21.138Z,14.533386
2019-02-24T12:48:49.083Z,14.734802
2019-02-24T12:52:17.138Z,14.513245
2019-02-24T12:55:46.123Z,14.45282
2019-02-24T12:59:14.331Z,14.33197
2019-02-24T13:02:42.473Z,13.818359
2019-02-24T13:06:11.729Z,13.707581
2019-02-24T13:09:40.727Z,13.667297
2019-02-24T13:13:10.676Z,13.778076
2019-02-24T13:16:38.791Z,13.878784
2019-02-24T13:20:09.809Z,14.029846
2019-02-24T13:23:36.838Z,13.848572
2019-02-24T13:27:05.837Z,14.110413
2019-02-24T13:30:33.910Z,14.039917
2019-02-24T13:34:02.953Z,13.858643
2019-02-24T13:37:30.928Z,13.798218
2019-02-24T13:40:58.995Z,13.707581
2019-02-24T13:44:27.107Z,14.009705
2019-02-24T13:47:55.120Z,14.120483
2019-02-24T13:51:23.228Z,13.788147
2019-02-24T13:54:51.246Z,13.979492
2019-02-24T13:58:19.340Z,14.049988
2019-02-24T14:01:47.448Z,14.110413
2019-02-24T14:05:15.549Z,14.090271
2019-02-24T14:08:43.659Z,13.878784
2019-02-24T14:12:12.688Z,13.747864
2019-02-24T14:15:40.708Z,13.727722
2019-02-24T14:19:08.713Z,13.707581
2019-02-24T14:22:36.741Z,13.929138
2019-02-24T14:26:05.963Z,13.929138
2019-02-24T14:29:34.066Z,13.778076
2019-02-24T14:33:02.092Z,13.677368
2019-02-24T14:36:30.181Z,13.526306
2019-02-24T14:39:58.202Z,13.375244
2019-02-24T14:43:27.518Z,13.385315
2019-02-24T14:46:57.194Z,13.264465
2019-02-24T14:50:24.684Z,13.274536
2019-02-24T14:53:52.655Z,13.133545
2019-02-24T14:57:20.736Z,13.133545
2019-02-24T15:00:48.782Z,13.042908
2019-02-24T15:04:16.773Z,12.992554
2019-02-24T15:07:45.510Z,12.801208
2019-02-24T15:11:14.712Z,12.770996
2019-02-24T15:14:42.816Z,12.650146
2019-02-24T15:18:11.014Z,12.398376
2019-02-24T15:21:38.997Z,12.348022
2019-02-24T15:25:07.011Z,12.297668
2019-02-24T15:28:35.168Z,12.106323
2019-02-24T15:32:03.367Z,12.035828
2019-02-24T15:35:31.428Z,11.854553
2019-02-24T15:38:59.460Z,11.713562
2019-02-24T15:42:27.427Z,11.552429
2019-02-24T15:45:55.576Z,11.411438
2019-02-24T15:49:23.484Z,11.31073
2019-02-24T15:52:51.445Z,11.18988
2019-02-24T15:56:19.579Z,11.119385
2019-02-24T15:59:47.533Z,10.897827
2019-02-24T16:03:16.487Z,10.635986
2019-02-24T16:06:44.504Z,10.4245
2019-02-24T16:10:12.435Z,10.1828
2019-02-24T16:13:41.436Z,9.93103
2019-02-24T16:17:09.400Z,9.649048
2019-02-24T16:20:37.602Z,9.336853
2019-02-24T16:24:06.499Z,9.185791
2019-02-24T16:27:34.553Z,9.0448
2019-02-24T16:31:02.592Z,8.833313
2019-02-24T16:34:30.679Z,8.621826
2019-02-24T16:37:58.804Z,8.500977
2019-02-24T16:41:26.836Z,8.370056
2019-02-24T16:44:54.830Z,8.229065
2019-02-24T16:48:23.689Z,8.158569
2019-02-24T16:51:51.732Z,8.098145
2019-02-24T16:55:19.803Z,7.977295
2019-02-24T16:58:47.719Z,7.866516
2019-02-24T17:02:22.448Z,7.725525
2019-02-24T17:05:47.601Z,7.584534
2019-02-24T17:09:15.513Z,7.473755
2019-02-24T17:12:43.480Z,7.393188
2019-02-24T17:16:11.443Z,7.312622
2019-02-24T17:19:40.949Z,7.262268
2019-02-24T17:23:08.333Z,7.221985
2019-02-24T17:26:36.252Z,7.191772
2019-02-24T17:30:04.173Z,7.101135
2019-02-24T17:33:32.775Z,7.101135
2019-02-24T17:37:00.195Z,7.16156
2019-02-24T17:40:28.161Z,7.181702
2019-02-24T17:43:56.099Z,7.131348
2019-02-24T17:47:24.083Z,7.16156
2019-02-24T17:50:52.033Z,7.151489
2019-02-24T17:54:19.980Z,7.151489
2019-02-24T17:57:49.240Z,7.181702
2019-02-24T18:01:17.391Z,7.16156
2019-02-24T18:04:45.276Z,7.111206
2019-02-24T18:08:13.398Z,7.010498
2019-02-24T18:11:43.443Z,6.929932
2019-02-24T18:15:11.580Z,6.859436
2019-02-24T18:18:39.659Z,6.849365
2019-02-24T18:22:08.896Z,6.728516
2019-02-24T18:25:37.248Z,6.647949
2019-02-24T18:29:05.235Z,6.637878
2019-02-24T18:32:34.227Z,6.637878
2019-02-24T18:36:03.334Z,6.607666
2019-02-24T18:39:32.269Z,6.547241
2019-02-24T18:43:00.811Z,6.396179
2019-02-24T18:46:30.147Z,6.396179
2019-02-24T18:50:08.007Z,6.365967
2019-02-24T18:53:35.953Z,6.27533
2019-02-24T18:57:03.880Z,6.265259
2019-02-24T19:00:32.833Z,6.134338
2019-02-24T19:04:00.898Z,6.053772
2019-02-24T19:07:28.850Z,5.983276
2019-02-24T19:10:56.860Z,5.942993
2019-02-24T19:14:24.774Z,5.942993
2019-02-24T19:17:52.785Z,5.912781
2019-02-24T19:21:20.814Z,5.932922
2019-02-24T19:24:48.768Z,5.973206
2019-02-24T19:34:26.848Z,6.003418
2019-02-24T19:37:54.992Z,6.003418
2019-02-24T19:41:22.938Z,5.882568
2019-02-24T19:44:51.918Z,5.852356
2019-02-24T19:48:20.831Z,5.822144
2019-02-24T19:51:49.933Z,5.802002
2019-02-24T19:55:17.801Z,5.77179
2019-02-24T19:58:47.525Z,5.731506
2019-02-24T20:02:15.742Z,5.691223
2019-02-24T20:05:43.662Z,5.590515
2019-02-24T20:09:11.645Z,5.52002
2019-02-24T20:12:39.585Z,5.499878
2019-02-24T20:16:07.558Z,5.509949
2019-02-24T20:19:36.216Z,5.479736
2019-02-24T20:23:04.200Z,5.469666
2019-02-24T20:26:32.131Z,5.409241
2019-02-24T20:30:00.101Z,5.409241
2019-02-24T20:33:28.170Z,5.439453
2019-02-24T20:36:56.156Z,5.469666
2019-02-24T20:40:24.149Z,5.409241
2019-02-24T20:43:53.990Z,5.328674
2019-02-24T20:47:21.892Z,5.298462
2019-02-24T20:50:51.206Z,5.318604
2019-02-24T20:54:18.836Z,5.318604
2019-02-24T20:57:47.733Z,5.288391
2019-02-24T21:01:15.680Z,5.328674
2019-02-24T21:04:44.623Z,5.338745
2019-02-24T21:08:12.593Z,5.358887
2019-02-24T21:11:40.496Z,5.389099
2019-02-24T21:15:08.559Z,5.298462
2019-02-24T21:18:39.469Z,5.288391
2019-02-24T21:22:10.829Z,5.26825
2019-02-24T21:25:38.911Z,5.207825
2019-02-24T21:29:06.932Z,5.26825
2019-02-24T21:32:34.855Z,5.298462
2019-02-24T21:36:02.889Z,5.39917
2019-02-24T21:39:30.823Z,5.358887
2019-02-24T21:42:58.769Z,5.368958
2019-02-24T21:46:26.731Z,5.338745
2019-02-24T21:49:54.716Z,5.318604
2019-02-24T21:53:22.701Z,5.288391
2019-02-24T21:56:50.647Z,5.248108
2019-02-24T22:00:18.636Z,5.26825
2019-02-24T22:03:46.592Z,5.26825
2019-02-24T22:07:14.582Z,5.26825
2019-02-24T22:10:42.558Z,5.248108
2019-02-24T22:14:10.500Z,5.368958
2019-02-24T22:17:38.414Z,5.358887
2019-02-24T22:21:06.505Z,5.39917
2019-02-24T22:24:34.381Z,5.358887
2019-02-24T22:28:02.419Z,5.338745
2019-02-24T22:31:30.284Z,5.26825
2019-02-24T22:34:58.283Z,5.207825
2019-02-24T22:38:26.275Z,5.117188
2019-02-24T22:41:54.189Z,5.006409
2019-02-24T22:45:22.108Z,4.976196
2019-02-24T22:48:50.048Z,4.966125
2019-02-24T22:52:18.198Z,5.006409
2019-02-24T22:55:46.125Z,5.086975
2019-02-24T22:59:14.135Z,5.036621
